Time;durP1;ratioP1;P1;durP2;ratioP2;P2;SDS_P1;SDS_P2;PMS_P1;PMS_P2;Temp;Humidity;BMP_temperature;BMP_pressure;BME280_temperature;BME280_humidity;BME280_pressure;Samples;Min_cycle;Max_cycle;Signal;HPM_P1;HPM_P2
2021/12/22 00:01:56;;;;;;;3.47;2.53;;;;;;;-5.40;99.19;99723.25;4897623;29;20033;-66
2021/12/22 00:04:24;;;;;;;1.88;1.77;;;;;;;-5.46;98.86;99728.81;4897871;29;20443;-66
2021/12/22 00:06:49;;;;;;;3.17;2.95;;;;;;;-5.59;98.67;99727.16;4897425;29;20016;-66
2021/12/22 00:09:15;;;;;;;1.88;1.77;;;;;;;-5.61;98.47;99730.38;4897585;29;20467;-66
2021/12/22 00:11:40;;;;;;;2.40;2.25;;;;;;;-5.72;98.82;99717.09;4897470;29;20534;-66
2021/12/22 00:14:05;;;;;;;3.58;3.38;;;;;;;-5.68;98.84;99716.50;4897672;29;20037;-66
2021/12/22 00:16:31;;;;;;;2.08;1.98;;;;;;;-5.61;99.17;99718.63;4897364;29;20367;-66
2021/12/22 00:18:56;;;;;;;0.90;0.90;;;;;;;-5.58;99.53;99715.41;4897582;29;20096;-68
2021/12/22 00:21:21;;;;;;;4.55;3.53;;;;;;;-5.58;99.75;99711.25;4897407;29;20505;-68
2021/12/22 00:23:47;;;;;;;1.00;1.00;;;;;;;-5.53;99.96;99711.53;4897501;29;20040;-68
2021/12/22 00:26:15;;;;;;;1.90;1.80;;;;;;;-5.55;99.94;99713.97;4897288;29;20498;-68
2021/12/22 00:28:41;;;;;;;1.75;1.73;;;;;;;-5.52;99.92;99711.59;4897430;29;20501;-68
2021/12/22 00:31:11;;;;;;;1.67;1.67;;;;;;;-5.54;99.85;99703.06;4897340;29;20066;-68
2021/12/22 00:33:45;;;;;;;2.08;1.98;;;;;;;-5.49;99.67;99700.84;4897411;29;20159;-68
2021/12/22 00:36:11;;;;;;;2.30;2.15;;;;;;;-5.50;99.58;99705.00;4897059;29;20052;-68
2021/12/22 00:38:36;;;;;;;2.10;1.63;;;;;;;-5.50;99.50;99705.00;4897035;29;20036;-68
2021/12/22 00:41:01;;;;;;;1.20;1.17;;;;;;;-5.56;99.27;99704.66;4897145;29;20092;-68
2021/12/22 00:43:27;;;;;;;2.95;2.72;;;;;;;-5.62;99.47;99704.25;4896706;29;20040;-68
2021/12/22 00:45:56;;;;;;;1.42;1.42;;;;;;;-5.64;99.30;99698.25;4897060;29;20133;-68
2021/12/22 00:48:22;;;;;;;2.47;2.28;;;;;;;-5.70;98.87;99700.41;4897102;29;20116;-68
2021/12/22 00:50:47;;;;;;;1.55;1.50;;;;;;;-5.81;98.76;99703.91;4897102;29;20052;-68
2021/12/22 00:53:12;;;;;;;2.05;1.95;;;;;;;-5.85;98.83;99719.63;4896982;29;20048;-68
2021/12/22 00:55:38;;;;;;;3.53;2.42;;;;;;;-5.89;99.01;99718.59;4896949;29;20028;-68
2021/12/22 00:58:04;;;;;;;1.90;1.80;;;;;;;-5.87;99.30;99726.25;4896859;29;20037;-68
2021/12/22 05:17:20;;;;;;;1.60;1.35;;;;;;;-7.25;97.60;99720.81;5065755;23;20056;-68
2021/12/22 05:19:45;;;;;;;2.20;2.13;;;;;;;-7.27;97.77;99721.47;4896870;29;20043;-68
2021/12/22 05:22:11;;;;;;;1.73;1.55;;;;;;;-7.26;97.68;99723.19;4896833;29;20112;-68
2021/12/22 05:24:36;;;;;;;2.20;2.10;;;;;;;-7.26;97.71;99725.72;4896815;29;20037;-68
2021/12/22 05:27:02;;;;;;;4.13;2.03;;;;;;;-7.26;97.90;99718.16;4896607;29;20025;-68
2021/12/22 05:29:27;;;;;;;2.55;2.45;;;;;;;-7.20;97.84;99723.63;4921404;23;20367;-68
2021/12/22 05:31:55;;;;;;;3.33;3.13;;;;;;;-7.30;97.83;99723.75;4900368;29;20048;-68
2021/12/22 05:34:20;;;;;;;1.67;1.67;;;;;;;-7.30;97.89;99723.75;4900638;29;20127;-68
2021/12/22 05:36:46;;;;;;;1.67;1.63;;;;;;;-7.33;97.77;99728.59;4900365;29;20127;-68
2021/12/22 05:39:11;;;;;;;2.22;2.08;;;;;;;-7.28;97.77;99738.19;4900310;29;20036;-67
2021/12/22 05:41:37;;;;;;;1.45;1.45;;;;;;;-7.26;97.69;99740.81;4900443;29;20036;-68
2021/12/22 05:44:03;;;;;;;1.75;1.73;;;;;;;-7.31;97.55;99742.16;4900348;29;20300;-68
2021/12/22 05:46:28;;;;;;;2.58;2.45;;;;;;;-7.32;97.70;99740.41;4900462;29;20103;-68
2021/12/22 05:48:54;;;;;;;1.20;1.20;;;;;;;-7.27;97.72;99739.06;4900259;29;20385;-68
2021/12/22 05:51:19;;;;;;;1.00;1.00;;;;;;;-7.15;97.97;99744.94;4900345;29;20036;-67
2021/12/22 05:53:44;;;;;;;3.88;2.97;;;;;;;-7.17;97.61;99743.97;4900609;29;20107;-68
2021/12/22 05:56:12;;;;;;;0.90;0.90;;;;;;;-7.16;97.56;99748.22;4899906;29;20504;-68
2021/12/22 05:58:38;;;;;;;1.50;1.50;;;;;;;-7.17;97.57;99741.44;4900100;29;20109;-68
2021/12/22 06:01:03;;;;;;;2.85;2.03;;;;;;;-7.20;97.44;99741.25;4899972;29;20041;-68
2021/12/22 06:03:29;;;;;;;3.13;2.92;;;;;;;-7.17;97.48;99741.44;4900081;29;20111;-68
2021/12/22 06:05:54;;;;;;;1.30;1.27;;;;;;;-7.21;96.92;99742.00;4899790;29;20032;-68
2021/12/22 06:08:19;;;;;;;1.33;1.33;;;;;;;-7.34;96.88;99737.81;4899902;29;20120;-68
2021/12/22 06:10:45;;;;;;;2.00;1.90;;;;;;;-7.35;96.77;99737.66;4899866;29;20020;-68
2021/12/22 06:13:10;;;;;;;1.60;1.60;;;;;;;-7.42;96.81;99743.06;4899922;29;20035;-68
2021/12/22 06:15:38;;;;;;;4.00;1.88;;;;;;;-7.37;97.31;99752.69;4900052;29;20084;-68
2021/12/22 06:18:04;;;;;;;3.28;3.13;;;;;;;-7.40;97.10;99751.59;4899811;29;20115;-68
2021/12/22 06:20:31;;;;;;;2.05;1.95;;;;;;;-7.39;97.24;99754.22;4899775;29;20031;-67
2021/12/22 06:22:57;;;;;;;2.55;2.35;;;;;;;-7.33;97.26;99753.78;4899953;29;20036;-67
2021/12/22 06:25:24;;;;;;;2.05;1.95;;;;;;;-7.27;97.55;99759.22;4899708;29;20028;-68
2021/12/22 06:27:49;;;;;;;3.22;2.30;;;;;;;-7.15;97.48;99759.19;4899518;29;20055;-68
2021/12/22 06:30:15;;;;;;;10.13;2.85;;;;;;;-7.11;97.20;99756.94;4899360;29;20091;-67
2021/12/22 06:32:41;;;;;;;2.03;1.92;;;;;;;-7.08;97.36;99761.31;4899538;29;20028;-67
2021/12/22 06:35:07;;;;;;;1.35;1.35;;;;;;;-7.12;97.01;99755.19;4899550;29;20035;-67
2021/12/22 06:37:33;;;;;;;1.65;1.55;;;;;;;-7.09;97.00;99754.56;4898890;29;20123;-67
2021/12/22 06:39:58;;;;;;;2.42;2.30;;;;;;;-7.08;96.93;99747.09;4898637;29;20064;-67
2021/12/22 06:42:24;;;;;;;6.63;4.88;;;;;;;-7.10;96.73;99751.16;4899165;29;20080;-67
2021/12/22 06:44:50;;;;;;;18.27;6.20;;;;;;;-7.10;96.77;99751.16;4899392;29;20044;-67
2021/12/22 06:47:15;;;;;;;3.53;3.30;;;;;;;-7.09;96.60;99745.34;4899071;29;20546;-67
2021/12/22 06:49:41;;;;;;;2.35;2.25;;;;;;;-7.18;96.41;99739.69;4899208;29;20033;-67
2021/12/22 06:52:07;;;;;;;1.83;1.75;;;;;;;-7.22;96.43;99741.91;4899146;29;20028;-67
2021/12/22 06:54:32;;;;;;;3.33;2.95;;;;;;;-7.21;96.60;99739.47;4899244;29;20040;-67
2021/12/22 06:56:58;;;;;;;2.83;2.72;;;;;;;-7.25;96.12;99737.56;4898768;29;20072;-67
2021/12/22 06:59:23;;;;;;;5.00;1.65;;;;;;;-7.30;96.29;99739.75;4899197;29;20024;-67
2021/12/22 07:01:50;;;;;;;3.45;3.25;;;;;;;-7.33;96.17;99738.66;4898986;29;20486;-67
2021/12/22 07:04:16;;;;;;;1.55;1.50;;;;;;;-7.40;96.23;99744.03;4898973;29;20092;-67
2021/12/22 07:06:42;;;;;;;1.98;1.88;;;;;;;-7.48;96.14;99742.66;4898847;29;20456;-67
2021/12/22 07:09:07;;;;;;;1.10;1.10;;;;;;;-7.52;96.09;99741.56;4898708;29;20104;-67
2021/12/22 07:11:34;;;;;;;2.05;1.95;;;;;;;-7.52;96.11;99742.44;4898739;29;20494;-67
2021/12/22 07:14:01;;;;;;;1.90;1.80;;;;;;;-7.52;95.97;99746.59;4898793;29;20036;-67
2021/12/22 07:16:27;;;;;;;2.88;2.65;;;;;;;-7.51;96.06;99744.19;4898558;29;20040;-67
2021/12/22 07:18:52;;;;;;;4.72;4.32;;;;;;;-7.47;95.98;99750.31;4898762;29;20021;-67
2021/12/22 07:21:18;;;;;;;4.20;3.90;;;;;;;-7.47;95.79;99745.28;4898634;29;20088;-68
2021/12/22 07:23:43;;;;;;;1.55;1.55;;;;;;;-7.45;95.91;99752.91;4898563;29;20481;-67
2021/12/22 07:26:13;;;;;;;1.00;1.00;;;;;;;-7.37;95.85;99756.84;4898395;29;20032;-67
2021/12/22 07:28:39;;;;;;;;;;;;;;;-7.35;96.03;99750.25;4899318;29;20460;-67
2021/12/22 07:31:04;;;;;;;6.18;4.22;;;;;;;-7.31;96.17;99748.06;4898372;29;19958;-67
2021/12/22 07:33:29;;;;;;;1.60;1.60;;;;;;;-7.37;95.58;99749.28;4898453;29;20485;-67
2021/12/22 07:36:01;;;;;;;2.53;2.40;;;;;;;-7.33;96.00;99748.75;4898227;29;20067;-67
2021/12/22 07:38:38;;;;;;;1.25;1.25;;;;;;;-7.33;95.53;99753.78;4898129;29;20064;-67
2021/12/22 07:41:07;;;;;;;3.78;2.35;;;;;;;-7.29;95.33;99755.72;4898334;29;20108;-67
2021/12/22 07:43:34;;;;;;;1.98;1.88;;;;;;;-7.16;95.34;99767.47;4898440;29;20028;-67
2021/12/22 07:46:00;;;;;;;0.90;0.90;;;;;;;-6.86;95.62;99771.19;4898094;29;20032;-67
2021/12/22 07:48:26;;;;;;;2.25;2.15;;;;;;;-6.70;95.29;99776.47;4898226;29;20087;-67
2021/12/22 07:50:51;;;;;;;4.40;1.85;;;;;;;-6.72;94.39;99785.56;4898088;29;20478;-67
2021/12/22 07:53:17;;;;;;;1.92;1.60;;;;;;;-6.58;93.65;99777.25;4898025;29;20028;-67
2021/12/22 07:55:42;;;;;;;3.30;3.10;;;;;;;-6.51;94.01;99788.63;4898074;29;20383;-67
2021/12/22 07:58:08;;;;;;;25.88;3.38;;;;;;;-6.31;93.78;99782.38;4897994;29;20386;-67
2021/12/22 08:00:35;;;;;;;2.05;1.95;;;;;;;-6.34;92.63;99782.16;4897874;29;20099;-67
2021/12/22 08:03:00;;;;;;;4.35;3.92;;;;;;;-6.24;92.86;99784.50;4898023;29;20056;-66
2021/12/22 08:05:25;;;;;;;2.80;2.65;;;;;;;-6.14;92.81;99781.81;4897788;29;20033;-66
2021/12/22 08:07:51;;;;;;;5.60;4.88;;;;;;;-6.18;91.37;99779.88;4897456;29;20024;-67
2021/12/22 08:10:17;;;;;;;3.97;3.45;;;;;;;-6.12;91.31;99779.38;4897580;29;20032;-67
2021/12/22 08:12:42;;;;;;;3.22;2.85;;;;;;;-5.99;90.96;99785.31;4897962;29;20028;-67
2021/12/22 08:15:08;;;;;;;4.57;3.13;;;;;;;-6.01;90.65;99788.50;4897626;29;20087;-67
2021/12/22 08:17:34;;;;;;;1.73;1.67;;;;;;;-5.74;91.07;99776.72;4897443;29;20069;-67
2021/12/22 08:20:02;;;;;;;2.50;2.30;;;;;;;-5.59;89.80;99775.13;4897555;29;20088;-67
2021/12/22 08:22:28;;;;;;;3.25;2.95;;;;;;;-5.42;89.64;99773.63;4897387;29;20442;-67
2021/12/22 08:24:53;;;;;;;2.35;2.22;;;;;;;-5.38;89.43;99772.16;4897727;29;20024;-67
2021/12/22 08:27:21;;;;;;;2.88;2.78;;;;;;;-5.40;89.22;99769.56;4897354;29;20021;-67
2021/12/22 08:29:47;;;;;;;2.47;2.38;;;;;;;-5.17;88.88;99770.97;4897317;29;20043;-67
2021/12/22 08:32:13;;;;;;;1.27;1.27;;;;;;;-5.07;88.93;99767.31;4897383;29;20390;-67
2021/12/22 08:34:40;;;;;;;2.70;2.08;;;;;;;-4.74;88.95;99773.47;4897353;29;20044;-67
2021/12/22 08:39:52;;;;;;;10.05;1.27;;;;;;;-4.45;87.94;99773.53;4889663;29;20035;-67
2021/12/22 08:42:19;;;;;;;3.15;2.95;;;;;;;-4.40;86.78;99772.13;4897183;29;20032;-67
2021/12/22 08:44:45;;;;;;;2.10;2.00;;;;;;;-4.49;86.31;99776.66;4897169;29;20076;-67
2021/12/22 08:47:10;;;;;;;3.80;3.60;;;;;;;-4.51;86.23;99767.22;4896884;29;20393;-67
2021/12/22 08:49:36;;;;;;;2.10;1.88;;;;;;;-4.40;86.36;99768.69;4911549;29;20529;-67
2021/12/22 08:52:02;;;;;;;2.10;2.00;;;;;;;-4.37;86.46;99765.47;4897171;29;20295;-67
2021/12/22 08:54:27;;;;;;;1.85;1.75;;;;;;;-4.33;85.69;99757.28;4897122;29;20036;-67
2021/12/22 08:56:55;;;;;;;3.17;2.40;;;;;;;-3.95;85.31;99751.84;4896782;29;20029;-67
2021/12/22 08:59:22;;;;;;;2.90;2.70;;;;;;;-3.66;83.15;99748.34;4896892;29;20494;-67
2021/12/22 09:01:47;;;;;;;1.88;1.77;;;;;;;-2.75;80.46;99746.34;4896897;29;20029;-67
2021/12/22 09:04:13;;;;;;;1.95;1.85;;;;;;;-1.36;75.53;99732.63;4896879;29;20489;-67
2021/12/22 09:06:38;;;;;;;10.85;3.63;;;;;;;-0.60;69.46;99735.06;4896714;29;20025;-67
2021/12/22 09:09:05;;;;;;;2.92;2.63;;;;;;;0.05;67.05;99719.03;4896824;29;20028;-67
2021/12/22 09:11:31;;;;;;;9.55;4.25;;;;;;;0.89;63.13;99718.75;4896850;29;20039;-67
2021/12/22 09:13:56;;;;;;;5.50;4.15;;;;;;;0.77;62.22;99714.97;4896941;29;20032;-67
2021/12/22 09:16:21;;;;;;;4.85;2.50;;;;;;;2.16;60.58;99717.84;4896504;29;20032;-67
2021/12/22 09:18:47;;;;;;;6.90;2.78;;;;;;;3.33;55.85;99718.63;4896887;29;20033;-67
2021/12/22 09:21:13;;;;;;;3.88;3.40;;;;;;;5.44;51.03;99690.72;4897003;29;20108;-68
2021/12/22 09:23:39;;;;;;;9.18;5.05;;;;;;;4.85;50.33;99705.03;4896954;29;20449;-68
2021/12/22 09:26:06;;;;;;;3.30;3.08;;;;;;;5.01;48.74;99705.34;4896705;29;20192;-68
2021/12/22 09:28:32;;;;;;;5.07;3.03;;;;;;;3.45;52.42;99717.22;4896750;29;20409;-68
2021/12/22 09:30:58;;;;;;;4.60;4.15;;;;;;;4.13;50.29;99710.34;4896534;29;20040;-68
2021/12/22 09:33:25;;;;;;;3.38;3.08;;;;;;;3.77;52.12;99711.22;4896654;29;20032;-68
2021/12/22 09:35:53;;;;;;;7.68;3.92;;;;;;;4.51;51.84;99700.91;4896684;29;20036;-67
2021/12/22 09:38:18;;;;;;;7.03;3.95;;;;;;;3.72;51.30;99712.78;4896440;29;20028;-68
2021/12/22 09:40:46;;;;;;;6.43;4.45;;;;;;;6.00;46.75;99699.38;4896559;29;20033;-68
2021/12/22 09:43:11;;;;;;;5.15;3.75;;;;;;;6.87;44.95;99692.84;4896699;29;20512;-68
2021/12/22 09:45:43;;;;;;;5.50;4.25;;;;;;;5.68;46.27;99698.84;4896468;29;20040;-69
2021/12/22 09:50:46;;;;;;;9.48;4.63;;;;;;;5.65;47.09;99683.34;4896628;29;20402;-69
2021/12/22 09:53:13;;;;;;;7.90;4.80;;;;;;;6.16;47.33;99677.31;4896752;29;20033;-69
2021/12/22 09:55:39;;;;;;;3.55;3.25;;;;;;;7.07;44.08;99671.56;4896462;29;20024;-69
2021/12/22 09:58:05;;;;;;;8.48;3.55;;;;;;;8.15;40.67;99669.03;4896251;29;20085;-69
2021/12/22 10:00:34;;;;;;;4.00;3.50;;;;;;;8.02;41.59;99672.38;4896329;29;20048;-70
2021/12/22 10:02:59;;;;;;;9.73;4.50;;;;;;;8.65;40.92;99671.03;4896601;29;20035;-69
2021/12/22 10:05:25;;;;;;;6.10;3.97;;;;;;;8.62;41.27;99668.44;4896587;29;20538;-69
2021/12/22 10:08:08;;;;;;;5.72;3.95;;;;;;;9.69;38.65;99663.50;4896244;29;20032;-69
2021/12/22 10:10:36;;;;;;;6.80;3.08;;;;;;;10.39;38.60;99663.41;4896215;29;20033;-69
2021/12/22 10:13:19;;;;;;;7.35;4.88;;;;;;;10.91;37.06;99665.78;4847524;29;20041;-69
2021/12/22 10:15:46;;;;;;;10.65;5.30;;;;;;;11.36;35.18;99656.00;4884777;29;20048;-70
2021/12/22 10:18:14;;;;;;;9.85;3.60;;;;;;;10.92;36.70;99656.28;4881189;29;20120;-68
2021/12/22 10:20:41;;;;;;;3.80;3.40;;;;;;;11.77;35.46;99660.03;4881047;29;20509;-68
2021/12/22 10:23:27;;;;;;;5.93;3.55;;;;;;;9.46;37.78;99654.00;4881008;29;20037;-68
2021/12/22 10:25:56;;;;;;;6.30;3.97;;;;;;;11.21;35.85;99650.91;4880820;29;20029;-69
2021/12/22 10:28:23;;;;;;;6.00;3.53;;;;;;;11.47;34.93;99641.22;4880965;29;20029;-68
2021/12/22 10:30:55;;;;;;;4.57;3.58;;;;;;;11.63;34.66;99644.56;4880719;29;20093;-68
2021/12/22 10:33:23;;;;;;;3.30;2.90;;;;;;;9.65;38.07;99651.41;4895405;29;20557;-68
2021/12/22 10:35:55;;;;;;;8.73;4.75;;;;;;;11.86;35.20;99634.00;4880405;29;20482;-68
2021/12/22 10:38:25;;;;;;;4.53;3.63;;;;;;;11.42;35.07;99632.63;4880568;29;20043;-68
2021/12/22 10:41:10;;;;;;;6.13;3.88;;;;;;;12.79;33.64;99621.69;4880523;29;20033;-69
2021/12/22 10:43:43;;;;;;;9.23;4.32;;;;;;;12.26;34.03;99621.47;4880961;29;20456;-68
2021/12/22 10:46:14;;;;;;;4.53;3.40;;;;;;;13.07;33.17;99604.81;4880382;29;20031;-68
2021/12/22 10:51:36;;;;;;;5.80;3.08;;;;;;;13.70;31.64;99616.84;4880676;29;20566;-68
2021/12/22 10:54:07;;;;;;;5.35;3.55;;;;;;;10.10;37.08;99632.34;4880587;29;20108;-69
2021/12/22 10:56:36;;;;;;;6.45;3.35;;;;;;;9.00;40.08;99628.09;4880050;29;20436;-67
2021/12/22 10:59:04;;;;;;;6.95;3.92;;;;;;;6.84;44.69;99630.97;4880362;29;20052;-68
2021/12/22 11:01:30;;;;;;;10.93;4.38;;;;;;;4.84;50.05;99628.00;4880410;29;20236;-69
2021/12/22 11:04:03;;;;;;;4.22;2.97;;;;;;;3.39;55.09;99627.44;4880462;29;20032;-69
2021/12/22 11:06:34;;;;;;;8.23;4.28;;;;;;;2.47;58.59;99631.00;4880118;29;20048;-69
2021/12/22 11:09:05;;;;;;;14.23;3.50;;;;;;;1.23;62.55;99634.03;4880042;29;20099;-69
2021/12/22 11:11:38;;;;;;;5.15;3.35;;;;;;;1.65;63.90;99619.22;4880312;29;20064;-68
2021/12/22 11:14:08;;;;;;;2.95;2.70;;;;;;;1.85;63.87;99608.75;4880218;29;20028;-69
2021/12/22 11:16:50;;;;;;;2.72;2.50;;;;;;;3.18;60.90;99603.00;4879914;29;20049;-69
2021/12/22 11:19:16;;;;;;;3.22;3.03;;;;;;;4.59;54.99;99600.97;4880045;29;20119;-69
2021/12/22 11:22:09;;;;;;;3.92;3.25;;;;;;;7.05;49.13;99581.34;4879952;29;20177;-69
2021/12/22 11:24:38;;;;;;;5.85;3.00;;;;;;;9.35;43.00;99567.78;4879861;29;20559;-69
2021/12/22 11:27:06;;;;;;;4.50;3.55;;;;;;;9.92;41.00;99568.56;4879434;29;20498;-69
2021/12/22 11:29:33;;;;;;;4.50;3.70;;;;;;;9.47;41.10;99562.59;4880019;29;20040;-69
2021/12/22 11:32:02;;;;;;;3.75;3.38;;;;;;;11.14;38.61;99550.69;4919605;23;20059;-72
2021/12/22 11:34:29;;;;;;;6.77;3.90;;;;;;;10.84;39.58;99550.03;4898521;29;20061;-74
2021/12/22 11:36:56;;;;;;;6.50;3.88;;;;;;;11.45;37.69;99549.53;4898169;29;20044;-73
2021/12/22 11:39:22;;;;;;;8.60;4.45;;;;;;;10.51;38.40;99556.28;4898294;29;20055;-73
2021/12/22 11:41:57;;;;;;;6.43;4.70;;;;;;;11.85;37.04;99546.59;4898336;29;20104;-73
2021/12/22 11:44:26;;;;;;;6.13;4.78;;;;;;;9.39;40.70;99554.00;4898246;29;20031;-73
2021/12/22 11:46:57;;;;;;;6.15;3.28;;;;;;;9.09;41.48;99554.88;4898097;29;20096;-73
2021/12/22 11:49:24;;;;;;;6.07;3.67;;;;;;;8.83;42.41;99551.38;4898247;29;20075;-73
2021/12/22 11:51:49;;;;;;;9.02;3.85;;;;;;;10.67;39.21;99536.31;4898117;29;20467;-72
2021/12/22 11:54:15;;;;;;;9.55;4.03;;;;;;;9.99;39.55;99541.78;4898182;29;20050;-73
2021/12/22 11:56:47;;;;;;;7.43;4.30;;;;;;;10.05;40.51;99536.56;4897874;29;20028;-73
2021/12/22 11:59:40;;;;;;;4.40;3.72;;;;;;;10.03;40.03;99527.97;4898052;29;20032;-73
2021/12/22 12:02:21;;;;;;;4.40;3.85;;;;;;;10.38;39.63;99518.34;4898128;29;20032;-73
2021/12/22 12:04:51;;;;;;;8.38;4.85;;;;;;;9.29;42.00;99526.41;4897930;29;20489;-73
2021/12/22 12:07:39;;;;;;;7.47;3.65;;;;;;;9.62;40.62;99519.44;4897630;29;20021;-73
2021/12/22 12:10:43;;;;;;;8.98;4.43;;;;;;;9.62;40.56;99512.56;4886372;29;20039;-73
2021/12/22 12:13:23;;;;;;;4.78;4.13;;;;;;;11.24;38.07;99495.25;4897848;29;20036;-73
2021/12/22 12:21:48;;;;;;;6.93;4.30;;;;;;;8.49;41.51;99487.59;4897518;29;20136;-73
2021/12/22 12:24:38;;;;;;;4.53;3.25;;;;;;;8.07;42.66;99497.75;4897780;29;20044;-73
2021/12/22 12:27:30;;;;;;;2.97;2.78;;;;;;;6.09;45.36;99513.41;4897499;29;20036;-73
2021/12/22 12:29:56;;;;;;;4.07;2.70;;;;;;;6.64;45.51;99494.28;4897318;29;20039;-73
2021/12/22 12:32:40;;;;;;;5.85;4.13;;;;;;;4.20;50.33;99511.28;4895196;29;20453;-73
2021/12/22 12:35:17;;;;;;;2.17;2.08;;;;;;;3.97;52.59;99511.72;4897535;29;20410;-72
2021/12/22 12:38:00;;;;;;;5.72;3.55;;;;;;;2.66;56.81;99509.59;4896744;29;20029;-72
2021/12/22 12:41:11;;;;;;;3.25;3.00;;;;;;;2.86;55.25;99506.66;4897193;29;20451;-72
2021/12/22 12:43:42;;;;;;;3.00;2.72;;;;;;;2.62;57.42;99502.66;4897558;29;20103;-72
2021/12/22 12:46:19;;;;;;;7.07;2.83;;;;;;;2.74;56.98;99508.06;4897226;29;20614;-72
2021/12/22 12:49:03;;;;;;;3.65;3.35;;;;;;;2.87;56.85;99503.25;4897230;29;20084;-72
2021/12/22 12:51:47;;;;;;;2.55;2.35;;;;;;;2.04;57.56;99511.34;4897324;29;20025;-72
2021/12/22 12:54:15;;;;;;;1.25;1.25;;;;;;;2.16;58.30;99504.00;4897358;29;20028;-72
2021/12/22 12:56:43;;;;;;;2.22;2.13;;;;;;;2.16;57.98;99504.00;4896842;29;20501;-72
2021/12/22 12:59:12;;;;;;;2.17;2.00;;;;;;;1.99;57.94;99513.78;4897169;29;20167;-72
2021/12/22 13:01:47;;;;;;;2.05;1.95;;;;;;;2.12;57.88;99504.72;4896764;29;20352;-72
2021/12/22 13:04:20;;;;;;;2.55;2.35;;;;;;;2.03;58.08;99505.38;4897054;29;20490;-72
2021/12/22 13:06:52;;;;;;;1.65;1.58;;;;;;;2.03;57.49;99501.91;4896844;29;20036;-72
2021/12/22 13:09:26;;;;;;;2.08;1.98;;;;;;;2.16;58.39;99501.44;4897040;29;20025;-72
2021/12/22 13:12:02;;;;;;;7.38;1.92;;;;;;;2.06;58.18;99499.47;4896742;29;20479;-72
2021/12/22 13:17:14;;;;;;;2.38;2.28;;;;;;;2.19;58.53;99508.34;4896877;29;20542;-72
2021/12/22 13:19:47;;;;;;;2.08;1.98;;;;;;;2.38;57.89;99507.16;4896942;29;20065;-72
2021/12/22 13:22:17;;;;;;;0.93;0.93;;;;;;;2.16;57.84;99506.53;4896858;29;20035;-72
2021/12/22 13:24:43;;;;;;;3.55;2.97;;;;;;;1.97;57.84;99502.63;4896935;29;20031;-72
2021/12/22 13:27:08;;;;;;;3.05;2.63;;;;;;;2.02;57.91;99497.63;4896828;29;20024;-72
2021/12/22 13:29:33;;;;;;;4.00;2.47;;;;;;;1.98;58.44;99493.25;4896887;29;20401;-73
2021/12/22 13:32:09;;;;;;;2.38;2.17;;;;;;;2.02;58.76;99497.63;4896587;29;20092;-72
2021/12/22 13:34:44;;;;;;;1.48;1.48;;;;;;;1.61;58.64;99499.03;4896727;29;20028;-72
2021/12/22 13:37:10;;;;;;;1.33;1.27;;;;;;;1.56;58.54;99496.34;4896778;29;20378;-72
2021/12/22 13:39:44;;;;;;;8.07;2.88;;;;;;;1.97;58.63;99501.75;4896724;29;20036;-72
2021/12/22 13:42:10;;;;;;;3.50;3.20;;;;;;;2.03;59.22;99495.16;4896700;29;20032;-72
2021/12/22 13:44:37;;;;;;;1.80;1.70;;;;;;;1.88;58.20;99496.38;4896776;29;20035;-73
2021/12/22 13:47:03;;;;;;;2.80;2.60;;;;;;;1.97;58.19;99499.19;4896605;29;20104;-71
2021/12/22 13:49:29;;;;;;;4.68;3.60;;;;;;;1.70;58.76;99495.06;4897303;29;20108;-74
2021/12/22 13:51:55;;;;;;;1.77;1.67;;;;;;;1.53;59.45;99489.44;4900462;29;20169;-73
2021/12/22 13:54:23;;;;;;;1.90;1.67;;;;;;;1.76;59.35;99487.56;4900424;29;20107;-73
2021/12/22 13:56:50;;;;;;;2.67;2.58;;;;;;;1.56;59.13;99481.03;4899859;29;20029;-74
2021/12/22 13:59:22;;;;;;;5.40;3.22;;;;;;;1.55;59.80;99476.75;4898978;29;20390;-74
2021/12/22 14:01:50;;;;;;;1.85;1.75;;;;;;;1.48;60.18;99478.22;4899896;29;20069;-73
2021/12/22 14:04:20;;;;;;;2.45;1.92;;;;;;;1.48;60.66;99487.56;4900041;29;20040;-74
2021/12/22 14:06:49;;;;;;;5.88;4.13;;;;;;;1.56;60.71;99490.38;4900023;29;20036;-74
2021/12/22 14:09:22;;;;;;;1.58;1.48;;;;;;;1.75;60.67;99485.84;4899933;29;20028;-73
2021/12/22 14:12:08;;;;;;;2.95;2.58;;;;;;;1.64;60.87;99483.78;4899945;29;20033;-73
2021/12/22 14:14:38;;;;;;;5.35;3.60;;;;;;;1.44;61.01;99484.06;4899879;29;20036;-73
2021/12/22 14:17:03;;;;;;;6.05;2.88;;;;;;;1.17;62.42;99484.13;4899900;29;20036;-73
2021/12/22 14:19:31;;;;;;;1.92;1.83;;;;;;;1.10;62.09;99479.63;4899889;29;20029;-73
2021/12/22 14:22:01;;;;;;;5.18;2.20;;;;;;;1.08;62.62;99485.50;4899595;29;20036;-73
2021/12/22 14:24:56;;;;;;;2.65;2.30;;;;;;;0.98;62.88;99494.56;4900179;29;20031;-73
2021/12/22 14:27:37;;;;;;;5.15;4.47;;;;;;;0.86;63.22;99489.06;4899492;29;20112;-73
2021/12/22 14:30:07;;;;;;;4.88;3.15;;;;;;;0.89;63.28;99489.16;4899553;29;20032;-73
2021/12/22 14:32:36;;;;;;;2.72;2.58;;;;;;;0.98;63.33;99484.38;4899334;29;20104;-73
2021/12/22 14:35:09;;;;;;;6.38;3.28;;;;;;;0.81;64.09;99485.50;4899548;29;20454;-73
2021/12/22 14:37:37;;;;;;;4.00;3.60;;;;;;;0.68;64.60;99479.16;4898996;29;20037;-74
2021/12/22 14:40:19;;;;;;;3.40;3.00;;;;;;;0.59;65.39;99484.81;4899447;29;20028;-73
2021/12/22 14:43:08;;;;;;;2.42;2.28;;;;;;;0.68;65.30;99484.25;4899474;29;20033;-73
2021/12/22 14:45:43;;;;;;;4.68;2.75;;;;;;;0.63;66.15;99471.34;4899302;29;20107;-73
2021/12/22 14:48:12;;;;;;;7.75;3.92;;;;;;;0.58;66.36;99474.53;4899289;29;20032;-73
2021/12/22 14:50:58;;;;;;;2.70;2.50;;;;;;;0.51;66.87;99481.13;4899437;29;20474;-73
2021/12/22 14:53:47;;;;;;;7.00;2.53;;;;;;;0.43;67.12;99482.53;4899192;29;20088;-74
2021/12/22 14:56:15;;;;;;;;;;;;;;;0.21;68.29;99470.78;4898985;29;20449;-74
2021/12/22 14:58:42;;;;;;;9.02;3.17;;;;;;;0.12;68.36;99476.41;4899279;29;19916;-73
2021/12/22 15:01:09;;;;;;;9.48;1.95;;;;;;;0.07;69.03;99483.03;4898285;29;20021;-73
2021/12/22 15:03:35;;;;;;;3.10;2.85;;;;;;;-0.01;69.19;99485.28;4898946;29;20514;-73
2021/12/22 15:06:15;;;;;;;3.70;3.30;;;;;;;-0.10;69.70;99482.41;4898729;29;20040;-73
2021/12/22 15:08:41;;;;;;;1.70;1.60;;;;;;;-0.14;69.70;99480.59;4898656;29;20087;-73
2021/12/22 15:11:07;;;;;;;2.10;2.00;;;;;;;-0.22;70.30;99479.44;4898836;29;20033;-73
2021/12/22 15:13:34;;;;;;;2.58;2.38;;;;;;;-0.29;70.66;99475.81;4899146;29;20442;-73
2021/12/22 15:16:00;;;;;;;1.40;1.40;;;;;;;-0.34;71.22;99479.88;4898761;29;20095;-73
2021/12/22 15:18:26;;;;;;;3.13;2.92;;;;;;;-0.46;70.99;99474.34;4898686;29;20036;-73
2021/12/22 15:20:51;;;;;;;3.47;2.75;;;;;;;-0.55;71.74;99469.75;4898730;29;20025;-73
2021/12/22 15:23:17;;;;;;;2.17;1.95;;;;;;;-0.63;72.40;99470.28;4898523;29;20035;-73
2021/12/22 15:25:44;;;;;;;2.55;2.40;;;;;;;-0.72;73.00;99469.97;4898678;29;20028;-73
2021/12/22 15:28:10;;;;;;;2.50;2.38;;;;;;;-0.83;73.73;99462.75;4898649;29;20441;-73
2021/12/22 15:30:36;;;;;;;2.70;2.50;;;;;;;-0.90;73.84;99465.88;4898386;29;20401;-73
2021/12/22 15:33:02;;;;;;;1.85;1.77;;;;;;;-1.01;74.46;99461.22;4898286;29;20028;-73
2021/12/22 15:35:28;;;;;;;2.55;2.35;;;;;;;-1.07;74.86;99459.28;4898471;29;20032;-73
2021/12/22 15:37:53;;;;;;;3.20;3.00;;;;;;;-1.17;75.38;99459.72;4897986;29;20029;-73
2021/12/22 15:40:19;;;;;;;3.22;2.55;;;;;;;-1.22;75.66;99466.31;4898104;29;20034;-73
2021/12/22 15:42:45;;;;;;;1.80;1.67;;;;;;;-1.28;75.87;99466.06;4898373;29;20036;-73
2021/12/22 15:45:11;;;;;;;6.88;4.50;;;;;;;-1.38;76.62;99460.59;4898258;29;20699;-73
2021/12/22 15:47:39;;;;;;;2.60;2.40;;;;;;;-1.40;77.13;99461.34;4898163;29;20039;-73
2021/12/22 15:50:09;;;;;;;3.65;3.38;;;;;;;-1.47;77.50;99470.41;4897991;29;20029;-73
2021/12/22 15:52:34;;;;;;;;;;;;;;;-1.51;77.63;99457.50;4898864;29;20039;-73
2021/12/22 15:54:59;;;;;;;1.38;1.38;;;;;;;-1.54;77.97;99465.88;4898122;29;19915;-73
2021/12/22 15:57:26;;;;;;;3.80;3.47;;;;;;;-1.60;78.38;99475.78;4897917;29;20036;-73
2021/12/22 15:59:53;;;;;;;2.67;2.58;;;;;;;-1.62;78.44;99474.84;4897929;29;20032;-73
2021/12/22 16:02:18;;;;;;;4.13;2.88;;;;;;;-1.61;78.81;99476.59;4897807;29;20034;-73
2021/12/22 16:04:43;;;;;;;2.95;2.35;;;;;;;-1.69;78.74;99472.84;4897841;29;20024;-73
2021/12/22 16:07:08;;;;;;;2.75;2.65;;;;;;;-1.77;78.44;99479.31;4897587;29;20044;-73
2021/12/22 16:09:34;;;;;;;4.43;3.55;;;;;;;-1.82;78.95;99477.44;4897906;29;20032;-73
2021/12/22 16:11:59;;;;;;;1.75;1.73;;;;;;;-1.90;79.18;99483.84;4897800;29;20036;-73
2021/12/22 16:14:24;;;;;;;2.28;1.75;;;;;;;-1.92;79.40;99480.38;4897092;29;20534;-73
2021/12/22 16:16:51;;;;;;;3.05;2.88;;;;;;;-1.97;79.86;99481.88;4897437;29;20029;-73
2021/12/22 16:19:16;;;;;;;3.35;2.92;;;;;;;-2.01;79.61;99486.75;4897655;29;20406;-73